createdAt,value
2023-11-07T00:00:05.757Z,5.50
2023-11-07T00:00:28.823Z,5.50
2023-11-07T00:00:51.568Z,5.50
2023-11-07T00:01:14.425Z,5.50
2023-11-07T00:01:37.186Z,5.50
2023-11-07T00:01:59.964Z,5.50
2023-11-07T00:02:25.262Z,5.50
2023-11-07T00:02:50.011Z,5.40
2023-11-07T00:03:13.058Z,5.50
2023-11-07T00:03:36.040Z,5.40
2023-11-07T00:04:01.593Z,5.50
2023-11-07T00:04:24.703Z,5.40
2023-11-07T00:04:47.703Z,5.40
2023-11-07T00:05:10.673Z,5.40
2023-11-07T00:05:34.152Z,5.40
2023-11-07T00:05:57.236Z,5.40
2023-11-07T00:06:20.204Z,5.40
2023-11-07T00:06:43.137Z,5.40
2023-11-07T00:07:05.951Z,5.50
2023-11-07T00:07:28.717Z,5.50
2023-11-07T00:07:51.645Z,5.50
2023-11-07T00:08:14.463Z,5.50
2023-11-07T00:08:37.287Z,5.50
2023-11-07T00:09:00.153Z,5.60
2023-11-07T00:09:22.945Z,5.60
2023-11-07T00:09:45.866Z,5.50
2023-11-07T00:10:09.590Z,5.50
2023-11-07T00:10:33.405Z,5.50
2023-11-07T00:10:57.509Z,5.50
2023-11-07T00:11:20.427Z,5.50
2023-11-07T00:11:43.306Z,5.40
2023-11-07T00:12:06.806Z,5.40
2023-11-07T00:12:29.610Z,5.40
2023-11-07T00:12:52.729Z,5.40
2023-11-07T00:13:16.124Z,5.40
2023-11-07T00:13:38.928Z,5.40
2023-11-07T00:14:01.775Z,5.40
2023-11-07T00:14:24.550Z,5.40
2023-11-07T00:14:47.449Z,5.40
2023-11-07T00:15:11.050Z,5.50
2023-11-07T00:15:33.921Z,5.40
2023-11-07T00:15:56.725Z,5.50
2023-11-07T00:16:19.544Z,5.50
2023-11-07T00:16:42.854Z,5.50
2023-11-07T00:17:05.798Z,5.50
2023-11-07T00:17:30.462Z,5.50
2023-11-07T00:17:53.793Z,5.50
2023-11-07T00:18:16.814Z,5.50
2023-11-07T00:18:41.428Z,5.50
2023-11-07T00:19:07.637Z,5.50
2023-11-07T00:19:30.604Z,5.60
2023-11-07T00:19:53.482Z,5.60
2023-11-07T00:20:16.309Z,5.60
2023-11-07T00:20:39.107Z,5.70
2023-11-07T00:21:02.017Z,5.60
2023-11-07T00:21:25.030Z,5.70
2023-11-07T00:21:47.979Z,5.70
2023-11-07T00:22:13.654Z,5.70
2023-11-07T00:22:36.484Z,5.80
2023-11-07T00:22:59.418Z,5.80
2023-11-07T00:23:22.812Z,5.80
2023-11-07T00:23:46.139Z,5.80
2023-11-07T00:24:09.324Z,5.90
2023-11-07T00:24:34.299Z,5.90
2023-11-07T00:24:57.133Z,5.90
2023-11-07T00:25:20.000Z,5.90
2023-11-07T00:25:42.795Z,5.90
2023-11-07T00:26:06.383Z,5.90
2023-11-07T00:26:29.348Z,5.90
2023-11-07T00:26:55.176Z,5.90
2023-11-07T00:27:19.899Z,6.00
2023-11-07T00:27:42.701Z,5.90
2023-11-07T00:28:06.777Z,6.00
2023-11-07T00:28:29.693Z,5.90
2023-11-07T00:28:52.512Z,5.90
2023-11-07T00:29:16.609Z,5.90
2023-11-07T00:29:39.427Z,5.90
2023-11-07T00:30:02.255Z,5.90
2023-11-07T00:30:26.139Z,5.90
2023-11-07T00:30:49.504Z,6.00
2023-11-07T00:31:15.386Z,5.90
2023-11-07T00:31:38.237Z,5.90
2023-11-07T00:32:01.184Z,5.90
2023-11-07T00:32:24.549Z,5.90
2023-11-07T00:32:49.066Z,6.00
2023-11-07T00:33:12.202Z,5.90
2023-11-07T00:33:38.590Z,6.00
2023-11-07T00:34:01.832Z,6.00
2023-11-07T00:34:25.204Z,6.00
2023-11-07T00:34:48.220Z,6.00
2023-11-07T00:35:11.600Z,6.10
2023-11-07T00:35:34.398Z,6.10
2023-11-07T00:35:57.285Z,6.10
2023-11-07T00:36:20.231Z,6.10
2023-11-07T00:36:45.281Z,6.10
2023-11-07T00:37:08.102Z,6.10
2023-11-07T00:37:30.841Z,6.10
2023-11-07T00:37:56.031Z,6.10
2023-11-07T00:38:18.888Z,6.10
2023-11-07T00:38:41.832Z,6.10
2023-11-07T00:39:04.943Z,6.10
2023-11-07T00:39:27.864Z,6.10
2023-11-07T00:39:50.724Z,6.10
2023-11-07T00:40:14.375Z,6.10
2023-11-07T00:40:37.440Z,6.10
2023-11-07T00:41:00.367Z,6.10
2023-11-07T00:41:25.424Z,6.10
2023-11-07T00:41:48.375Z,6.10
2023-11-07T00:42:11.163Z,6.10
2023-11-07T00:42:36.130Z,6.10
2023-11-07T00:42:58.919Z,6.10
2023-11-07T00:43:24.057Z,6.10
2023-11-07T00:43:49.384Z,6.10
2023-11-07T00:44:12.206Z,6.10
2023-11-07T00:44:37.210Z,6.10
2023-11-07T00:45:00.160Z,6.20
2023-11-07T00:45:25.223Z,6.10
2023-11-07T00:45:48.297Z,6.10
2023-11-07T00:46:11.106Z,6.10
2023-11-07T00:46:34.468Z,6.10
2023-11-07T00:46:59.420Z,6.20
2023-11-07T00:47:22.368Z,6.20
2023-11-07T00:47:47.857Z,6.20
2023-11-07T00:48:12.982Z,6.20
2023-11-07T00:48:36.535Z,6.20
2023-11-07T00:48:59.825Z,6.20
2023-11-07T00:49:22.833Z,6.20
2023-11-07T00:49:46.474Z,6.20
2023-11-07T00:50:11.960Z,6.20
2023-11-07T00:50:35.851Z,6.20
2023-11-07T00:51:01.279Z,6.20
2023-11-07T00:51:24.081Z,6.20
2023-11-07T00:51:47.421Z,6.20
2023-11-07T00:52:12.637Z,6.20
2023-11-07T00:52:35.410Z,6.20
2023-11-07T00:53:00.588Z,6.20
2023-11-07T00:53:24.566Z,6.30
2023-11-07T00:53:47.464Z,6.20
2023-11-07T00:54:12.416Z,6.30
2023-11-07T00:54:35.246Z,6.30
2023-11-07T00:54:58.157Z,6.30
2023-11-07T00:55:23.150Z,6.30
2023-11-07T00:55:45.901Z,6.30
2023-11-07T00:56:09.501Z,6.30
2023-11-07T00:56:33.014Z,6.30
2023-11-07T00:56:58.370Z,6.40
2023-11-07T00:57:21.228Z,6.30
2023-11-07T00:57:44.107Z,6.30
2023-11-07T00:58:06.945Z,6.30
2023-11-07T00:58:29.717Z,6.30
2023-11-07T00:58:52.736Z,6.30
2023-11-07T00:59:15.588Z,6.40
2023-11-07T00:59:38.507Z,6.30
2023-11-07T01:00:01.501Z,6.30
2023-11-07T01:00:24.508Z,6.40
2023-11-07T01:00:47.288Z,6.30
2023-11-07T01:01:10.305Z,6.30
2023-11-07T01:01:33.208Z,6.30
2023-11-07T01:01:56.012Z,6.30
2023-11-07T01:02:18.811Z,6.30
2023-11-07T01:02:42.992Z,6.30
2023-11-07T01:03:06.301Z,6.30
2023-11-07T01:03:30.889Z,6.40
2023-11-07T01:03:54.105Z,6.40
2023-11-07T01:04:17.467Z,6.30
2023-11-07T01:04:40.422Z,6.40
2023-11-07T01:05:03.601Z,6.40
2023-11-07T01:05:26.874Z,6.40
2023-11-07T01:05:50.200Z,6.40
2023-11-07T01:06:13.434Z,6.40
2023-11-07T01:06:36.555Z,6.40
2023-11-07T01:06:59.488Z,6.40
2023-11-07T01:07:22.253Z,6.40
2023-11-07T01:07:45.375Z,6.40
2023-11-07T01:08:08.278Z,6.40
2023-11-07T01:08:34.593Z,6.40
2023-11-07T01:08:57.903Z,6.40
2023-11-07T01:09:20.866Z,6.40
2023-11-07T01:09:43.801Z,6.40
2023-11-07T01:10:08.225Z,6.40
2023-11-07T01:10:31.083Z,6.40
2023-11-07T01:10:53.976Z,6.40
2023-11-07T01:11:16.691Z,6.40
2023-11-07T01:11:41.400Z,6.40
2023-11-07T01:12:05.325Z,6.40
2023-11-07T01:12:29.356Z,6.40
2023-11-07T01:12:54.206Z,6.40
2023-11-07T01:13:17.186Z,6.40
2023-11-07T01:13:41.158Z,6.40
2023-11-07T01:14:04.880Z,6.40
2023-11-07T01:14:27.760Z,6.40
2023-11-07T01:14:50.702Z,6.50
2023-11-07T01:15:13.868Z,6.40
2023-11-07T01:15:36.659Z,6.40
2023-11-07T01:15:59.554Z,6.40
2023-11-07T01:16:22.678Z,6.40
2023-11-07T01:16:45.956Z,6.40
2023-11-07T01:17:09.049Z,6.50
2023-11-07T01:17:31.934Z,6.40
2023-11-07T01:17:55.026Z,6.40
2023-11-07T01:18:18.034Z,6.40
2023-11-07T01:18:42.498Z,6.40
2023-11-07T01:19:06.158Z,6.40
2023-11-07T01:19:29.768Z,6.40
2023-11-07T01:19:53.513Z,6.40
2023-11-07T01:20:16.321Z,6.50
2023-11-07T01:20:39.196Z,6.40
2023-11-07T01:21:02.056Z,6.40
2023-11-07T01:21:25.059Z,6.40
2023-11-07T01:21:48.765Z,6.40
2023-11-07T01:22:11.588Z,6.40
2023-11-07T01:22:34.448Z,6.40
2023-11-07T01:22:57.261Z,6.40
2023-11-07T01:23:20.408Z,6.40
2023-11-07T01:23:43.269Z,6.40
2023-11-07T01:24:07.820Z,6.40
2023-11-07T01:24:30.670Z,6.40
2023-11-07T01:24:53.420Z,6.40
2023-11-07T01:25:16.413Z,6.40
2023-11-07T01:25:39.206Z,6.40
2023-11-07T01:26:06.119Z,6.40
2023-11-07T01:26:28.980Z,6.30
2023-11-07T01:26:51.831Z,6.30
2023-11-07T01:27:17.074Z,6.40
2023-11-07T01:27:39.906Z,6.40
2023-11-07T01:28:02.787Z,6.30
2023-11-07T01:28:26.741Z,6.40
2023-11-07T01:28:50.091Z,6.40
2023-11-07T01:29:14.457Z,6.40
2023-11-07T01:29:37.310Z,6.30
2023-11-07T01:30:00.125Z,6.40
2023-11-07T01:30:23.065Z,6.40
2023-11-07T01:30:46.303Z,6.40
2023-11-07T01:31:10.023Z,6.40
2023-11-07T01:31:32.827Z,6.40
2023-11-07T01:31:56.776Z,6.40
2023-11-07T01:32:21.040Z,6.40
2023-11-07T01:32:45.001Z,6.40
2023-11-07T01:33:07.998Z,6.40
2023-11-07T01:33:31.309Z,6.30
2023-11-07T01:33:56.223Z,6.40
2023-11-07T01:34:19.296Z,6.30
2023-11-07T01:34:42.167Z,6.30
2023-11-07T01:35:06.018Z,6.30
2023-11-07T01:35:28.944Z,6.30
2023-11-07T01:35:51.820Z,6.30
2023-11-07T01:36:17.269Z,6.30
2023-11-07T01:36:40.285Z,6.30
2023-11-07T01:37:03.608Z,6.20
2023-11-07T01:37:26.518Z,6.30
2023-11-07T01:37:49.343Z,6.20
2023-11-07T01:38:12.093Z,6.20
2023-11-07T01:38:34.985Z,6.20
2023-11-07T01:38:58.054Z,6.20
2023-11-07T01:39:23.100Z,6.20
2023-11-07T01:39:45.902Z,6.20
2023-11-07T01:40:11.015Z,6.10
2023-11-07T01:40:33.836Z,6.20
2023-11-07T01:40:56.567Z,6.10
2023-11-07T01:41:19.946Z,6.10
2023-11-07T01:41:43.422Z,6.10
2023-11-07T01:42:09.662Z,6.10
2023-11-07T01:42:32.556Z,6.00
2023-11-07T01:42:56.934Z,6.00
2023-11-07T01:43:19.719Z,6.00
2023-11-07T01:43:42.513Z,6.00
2023-11-07T01:44:05.496Z,6.00
2023-11-07T01:44:30.202Z,6.00
2023-11-07T01:44:53.328Z,5.90
2023-11-07T01:45:16.394Z,6.00
2023-11-07T01:45:39.373Z,6.00
2023-11-07T01:46:04.263Z,6.00
2023-11-07T01:46:27.566Z,6.00
2023-11-07T01:46:50.632Z,6.00
2023-11-07T01:47:13.494Z,6.00
2023-11-07T01:47:36.244Z,6.00
2023-11-07T01:47:59.153Z,6.00
2023-11-07T01:48:24.430Z,5.90
2023-11-07T01:48:48.063Z,5.90
2023-11-07T01:49:12.558Z,5.90
2023-11-07T01:49:35.479Z,5.90
2023-11-07T01:49:58.669Z,5.90
2023-11-07T01:50:21.575Z,5.90
2023-11-07T01:50:44.499Z,5.90
2023-11-07T01:51:07.979Z,5.90
2023-11-07T01:51:31.110Z,5.90
2023-11-07T01:51:54.632Z,5.90
2023-11-07T01:52:19.117Z,5.80
2023-11-07T01:52:42.369Z,5.90
2023-11-07T01:53:05.251Z,5.80
2023-11-07T01:53:28.181Z,5.80
2023-11-07T01:53:51.009Z,5.90
2023-11-07T01:54:13.862Z,5.80
2023-11-07T01:54:36.872Z,5.90
2023-11-07T01:55:00.518Z,5.90
2023-11-07T01:55:23.312Z,5.90
2023-11-07T01:55:46.093Z,5.80
2023-11-07T01:56:09.671Z,5.80
2023-11-07T01:56:32.469Z,5.70
2023-11-07T01:56:55.429Z,5.80
2023-11-07T01:57:18.308Z,5.80
2023-11-07T01:57:42.401Z,5.80
2023-11-07T01:58:05.223Z,5.70
2023-11-07T01:58:28.067Z,5.70
2023-11-07T01:58:50.971Z,5.70
2023-11-07T01:59:13.794Z,5.70
2023-11-07T01:59:36.680Z,5.60
2023-11-07T01:59:59.700Z,5.60
2023-11-07T02:00:22.636Z,5.60
2023-11-07T02:00:45.460Z,5.60
2023-11-07T02:01:08.388Z,5.50
2023-11-07T02:01:33.606Z,5.50
2023-11-07T02:01:59.604Z,5.50
2023-11-07T02:02:22.546Z,5.50
2023-11-07T02:02:45.707Z,5.40
2023-11-07T02:03:08.918Z,5.50
2023-11-07T02:03:31.822Z,5.40
2023-11-07T02:03:54.910Z,5.40
2023-11-07T02:04:19.498Z,5.50
2023-11-07T02:04:42.385Z,5.40
2023-11-07T02:05:05.822Z,5.40
2023-11-07T02:05:28.668Z,5.40
2023-11-07T02:05:53.054Z,5.40
2023-11-07T02:06:16.009Z,5.40
2023-11-07T02:06:41.085Z,5.40
2023-11-07T02:07:04.169Z,5.40
2023-11-07T02:07:27.033Z,5.40
2023-11-07T02:07:49.835Z,5.40
2023-11-07T02:08:12.770Z,5.40
2023-11-07T02:08:36.177Z,5.40
2023-11-07T02:08:59.132Z,5.40
2023-11-07T02:09:24.033Z,5.50
2023-11-07T02:09:49.675Z,5.50
2023-11-07T02:10:12.570Z,5.50
2023-11-07T02:10:35.454Z,5.60
2023-11-07T02:10:58.319Z,5.60
2023-11-07T02:11:21.200Z,5.60
2023-11-07T02:11:45.109Z,5.60
2023-11-07T02:12:08.247Z,5.60
2023-11-07T02:12:30.999Z,5.60
2023-11-07T02:12:55.274Z,5.70
2023-11-07T02:13:18.014Z,5.70
2023-11-07T02:13:40.993Z,5.70
2023-11-07T02:14:03.781Z,5.70
2023-11-07T02:14:32.090Z,5.80
2023-11-07T02:14:55.119Z,5.80
2023-11-07T02:15:22.817Z,5.80
2023-11-07T02:15:45.656Z,5.90
2023-11-07T02:16:11.789Z,5.90
2023-11-07T02:16:35.136Z,5.90
2023-11-07T02:16:58.003Z,6.00
2023-11-07T02:17:20.794Z,6.00
2023-11-07T02:17:43.653Z,6.00
2023-11-07T02:18:06.626Z,6.00
2023-11-07T02:18:30.010Z,6.00
2023-11-07T02:18:53.173Z,6.00
2023-11-07T02:19:19.073Z,6.10
2023-11-07T02:19:43.447Z,6.00
2023-11-07T02:20:07.623Z,6.10
2023-11-07T02:20:32.311Z,6.10
2023-11-07T02:20:55.228Z,6.00
2023-11-07T02:21:18.066Z,6.00
2023-11-07T02:21:40.916Z,6.00
2023-11-07T02:22:04.102Z,6.00
2023-11-07T02:22:27.866Z,6.00
2023-11-07T02:22:55.582Z,6.00
2023-11-07T02:23:29.214Z,5.90
2023-11-07T02:23:52.060Z,5.90
2023-11-07T02:24:15.031Z,5.90
2023-11-07T02:24:37.953Z,5.90
2023-11-07T02:25:00.735Z,5.90
2023-11-07T02:25:23.542Z,5.80
2023-11-07T02:25:51.746Z,5.80
2023-11-07T02:26:14.590Z,5.80
2023-11-07T02:26:37.419Z,5.80
2023-11-07T02:27:00.416Z,5.80
2023-11-07T02:27:23.816Z,5.70
2023-11-07T02:27:46.560Z,5.70
2023-11-07T02:28:10.157Z,5.70
2023-11-07T02:28:33.904Z,5.70
2023-11-07T02:28:57.180Z,5.70
2023-11-07T02:29:19.987Z,5.70
2023-11-07T02:29:43.333Z,5.70
2023-11-07T02:30:12.114Z,5.70
2023-11-07T02:30:35.012Z,5.70
2023-11-07T02:30:59.158Z,5.80
2023-11-07T02:31:22.081Z,5.80
2023-11-07T02:31:47.609Z,5.80
2023-11-07T02:32:10.354Z,5.90
2023-11-07T02:32:33.285Z,5.90
2023-11-07T02:32:58.596Z,5.90
2023-11-07T02:33:22.287Z,6.00
2023-11-07T02:33:45.388Z,6.00
2023-11-07T02:34:08.477Z,6.00
2023-11-07T02:34:31.628Z,6.00
2023-11-07T02:34:54.881Z,6.00
2023-11-07T02:35:17.675Z,6.10
2023-11-07T02:35:42.048Z,6.10
2023-11-07T02:36:05.276Z,6.10
2023-11-07T02:36:28.087Z,6.10
2023-11-07T02:36:51.606Z,6.10
2023-11-07T02:37:14.456Z,6.10
2023-11-07T02:37:37.282Z,6.20
2023-11-07T02:38:00.244Z,6.20
2023-11-07T02:38:23.925Z,6.20
2023-11-07T02:38:48.647Z,6.20
2023-11-07T02:39:14.237Z,6.20
2023-11-07T02:39:37.127Z,6.20
2023-11-07T02:40:05.358Z,6.20
2023-11-07T02:40:28.161Z,6.30
2023-11-07T02:40:50.935Z,6.20
2023-11-07T02:41:15.870Z,6.30
2023-11-07T02:41:38.690Z,6.30
2023-11-07T02:42:02.516Z,6.30
2023-11-07T02:42:27.583Z,6.30
2023-11-07T02:42:50.404Z,6.30
2023-11-07T02:43:13.258Z,6.30
2023-11-07T02:43:38.201Z,6.30
2023-11-07T02:44:01.222Z,6.30
2023-11-07T02:44:24.067Z,6.30
2023-11-07T02:44:49.468Z,6.30
2023-11-07T02:45:13.640Z,6.30
2023-11-07T02:45:37.658Z,6.30
2023-11-07T02:46:02.866Z,6.30
2023-11-07T02:46:25.751Z,6.30
2023-11-07T02:46:49.926Z,6.30
2023-11-07T02:47:12.698Z,6.40
2023-11-07T02:47:39.789Z,6.30
2023-11-07T02:48:06.691Z,6.40
2023-11-07T02:48:29.814Z,6.40
2023-11-07T02:48:52.792Z,6.40
2023-11-07T02:49:16.617Z,6.30
2023-11-07T02:49:39.704Z,6.40
2023-11-07T02:50:03.343Z,6.40
2023-11-07T02:50:26.166Z,6.40
2023-11-07T02:50:48.975Z,6.40
2023-11-07T02:51:17.546Z,6.40
2023-11-07T02:51:40.372Z,6.40
2023-11-07T02:52:03.178Z,6.50
2023-11-07T02:52:26.478Z,6.50
2023-11-07T02:52:49.262Z,6.50
2023-11-07T02:53:14.232Z,6.50
2023-11-07T02:53:37.143Z,6.50
2023-11-07T02:54:04.458Z,6.50
2023-11-07T02:54:28.096Z,6.50
2023-11-07T02:54:50.956Z,6.50
2023-11-07T02:55:15.994Z,6.50
2023-11-07T02:55:39.423Z,6.50
2023-11-07T02:56:02.786Z,6.50
2023-11-07T02:56:28.603Z,6.50
2023-11-07T02:56:51.448Z,6.50
2023-11-07T02:57:14.298Z,6.50
2023-11-07T02:57:37.176Z,6.50
2023-11-07T02:57:59.923Z,6.50
2023-11-07T02:58:25.496Z,6.50
2023-11-07T02:58:48.380Z,6.50
2023-11-07T02:59:11.246Z,6.50
2023-11-07T02:59:34.100Z,6.40
2023-11-07T02:59:57.031Z,6.40
2023-11-07T03:00:21.484Z,6.40
2023-11-07T03:00:46.324Z,6.40
2023-11-07T03:01:09.146Z,6.30
2023-11-07T03:01:32.751Z,6.30
2023-11-07T03:01:55.621Z,6.30
2023-11-07T03:02:19.117Z,6.40
2023-11-07T03:02:41.981Z,6.30
2023-11-07T03:03:05.275Z,6.30
2023-11-07T03:03:29.646Z,6.20
2023-11-07T03:03:52.890Z,6.10
2023-11-07T03:04:16.095Z,6.10
2023-11-07T03:04:39.897Z,6.00
2023-11-07T03:05:05.785Z,5.90
2023-11-07T03:05:29.021Z,5.80
2023-11-07T03:05:52.009Z,5.70
2023-11-07T03:06:14.999Z,5.70
2023-11-07T03:06:38.074Z,5.60
2023-11-07T03:07:02.001Z,5.50
2023-11-07T03:07:25.083Z,5.50
2023-11-07T03:07:47.956Z,5.50
2023-11-07T03:08:12.076Z,5.40
2023-11-07T03:08:34.920Z,5.40
2023-11-07T03:08:57.826Z,5.30
2023-11-07T03:09:22.162Z,5.30
2023-11-07T03:09:45.298Z,5.30
2023-11-07T03:10:09.530Z,5.20
2023-11-07T03:10:33.218Z,5.20
2023-11-07T03:10:56.216Z,5.20
2023-11-07T03:11:19.176Z,5.10
2023-11-07T03:11:42.079Z,5.10
2023-11-07T03:12:05.546Z,5.10
2023-11-07T03:12:29.702Z,5.10
2023-11-07T03:12:52.466Z,5.10
2023-11-07T03:13:15.416Z,5.00
2023-11-07T03:13:38.284Z,5.00
2023-11-07T03:14:01.634Z,5.00
2023-11-07T03:14:24.513Z,5.00
2023-11-07T03:14:47.345Z,5.00
2023-11-07T03:15:11.032Z,4.90
2023-11-07T03:15:33.998Z,4.90
2023-11-07T03:15:57.109Z,4.90
2023-11-07T03:16:19.947Z,4.90
2023-11-07T03:16:42.703Z,4.90
2023-11-07T03:17:05.980Z,4.90
2023-11-07T03:17:28.887Z,4.90
2023-11-07T03:17:51.740Z,4.80
2023-11-07T03:18:14.724Z,4.80
2023-11-07T03:18:37.690Z,4.80
2023-11-07T03:19:00.930Z,4.80
2023-11-07T03:19:23.827Z,4.80
2023-11-07T03:19:52.968Z,4.80
2023-11-07T03:20:16.101Z,4.80
2023-11-07T03:20:40.145Z,4.70
2023-11-07T03:21:05.225Z,4.80
2023-11-07T03:21:28.189Z,4.80
2023-11-07T03:21:51.055Z,4.80
2023-11-07T03:22:14.019Z,4.80
2023-11-07T03:22:36.958Z,4.80
2023-11-07T03:22:59.932Z,4.70
2023-11-07T03:23:23.395Z,4.70
2023-11-07T03:23:46.222Z,4.70
2023-11-07T03:24:09.904Z,4.70
2023-11-07T03:24:34.255Z,4.70
2023-11-07T03:24:57.078Z,4.70
2023-11-07T03:25:21.250Z,4.70
2023-11-07T03:25:44.025Z,4.60
2023-11-07T03:26:07.262Z,4.70
2023-11-07T03:26:30.181Z,4.70
2023-11-07T03:26:53.202Z,4.60
2023-11-07T03:27:15.969Z,4.60
2023-11-07T03:27:38.804Z,4.60
2023-11-07T03:28:02.153Z,4.60
2023-11-07T03:28:24.978Z,4.60
2023-11-07T03:28:47.844Z,4.70
2023-11-07T03:29:11.916Z,4.60
2023-11-07T03:29:34.701Z,4.70
2023-11-07T03:29:57.459Z,4.60
2023-11-07T03:30:20.358Z,4.70
2023-11-07T03:30:43.262Z,4.70
2023-11-07T03:31:06.454Z,4.60
2023-11-07T03:31:29.349Z,4.60
2023-11-07T03:31:54.312Z,4.60
2023-11-07T03:32:17.214Z,4.60
2023-11-07T03:32:40.602Z,4.40
2023-11-07T03:33:03.551Z,4.50
2023-11-07T03:33:26.871Z,4.60
2023-11-07T03:33:49.884Z,4.60
2023-11-07T03:34:12.873Z,4.50
2023-11-07T03:34:35.741Z,4.50
2023-11-07T03:34:59.811Z,4.50
2023-11-07T03:35:24.470Z,4.50
2023-11-07T03:35:48.329Z,4.50
2023-11-07T03:36:11.758Z,4.40
2023-11-07T03:36:34.598Z,4.40
2023-11-07T03:36:57.470Z,4.40
2023-11-07T03:37:20.210Z,4.40
2023-11-07T03:37:43.132Z,4.40
2023-11-07T03:38:05.954Z,4.40
2023-11-07T03:38:28.725Z,4.40
2023-11-07T03:38:52.142Z,4.40
2023-11-07T03:39:15.051Z,4.40
2023-11-07T03:39:40.084Z,4.40
2023-11-07T03:40:04.738Z,4.40
2023-11-07T03:40:27.635Z,4.30
2023-11-07T03:40:50.491Z,4.40
2023-11-07T03:41:13.335Z,4.30
2023-11-07T03:41:39.812Z,4.30
2023-11-07T03:42:02.637Z,4.30
2023-11-07T03:42:25.465Z,4.30
2023-11-07T03:42:48.340Z,4.30
2023-11-07T03:43:11.434Z,4.30
2023-11-07T03:43:37.206Z,4.30
2023-11-07T03:43:59.997Z,4.30
2023-11-07T03:44:23.266Z,4.30
2023-11-07T03:44:46.069Z,4.30
2023-11-07T03:45:11.261Z,4.30
2023-11-07T03:45:34.310Z,4.30
2023-11-07T03:45:57.732Z,4.30
2023-11-07T03:46:20.554Z,4.30
2023-11-07T03:46:43.742Z,4.30
2023-11-07T03:47:07.175Z,4.30
2023-11-07T03:47:31.187Z,4.20
2023-11-07T03:47:54.154Z,4.20
2023-11-07T03:48:17.022Z,4.20
2023-11-07T03:48:40.057Z,4.30
2023-11-07T03:49:03.287Z,4.20
2023-11-07T03:49:26.467Z,4.20
2023-11-07T03:49:49.340Z,4.30
2023-11-07T03:50:12.150Z,4.30
2023-11-07T03:50:34.989Z,4.30
2023-11-07T03:50:57.901Z,4.30
2023-11-07T03:51:21.183Z,4.30
2023-11-07T03:51:44.001Z,4.30
2023-11-07T03:52:07.100Z,4.30
2023-11-07T03:52:29.883Z,4.30
2023-11-07T03:52:52.702Z,4.30
2023-11-07T03:53:15.488Z,4.30
2023-11-07T03:53:38.346Z,4.30
2023-11-07T03:54:01.244Z,4.30
2023-11-07T03:54:25.121Z,4.30
2023-11-07T03:54:49.439Z,4.30
2023-11-07T03:55:12.564Z,4.30
2023-11-07T03:55:35.513Z,4.20
2023-11-07T03:55:59.008Z,4.20
2023-11-07T03:56:21.742Z,4.20
2023-11-07T03:56:48.311Z,4.20
2023-11-07T03:57:11.246Z,4.20
2023-11-07T03:57:34.084Z,4.10
2023-11-07T03:57:56.945Z,4.10
2023-11-07T03:58:19.735Z,4.00
2023-11-07T03:58:42.599Z,4.00
2023-11-07T03:59:05.493Z,4.00
2023-11-07T03:59:28.384Z,4.00
2023-11-07T03:59:52.250Z,4.00
2023-11-07T04:00:15.719Z,4.00
2023-11-07T04:00:38.615Z,4.00
2023-11-07T04:01:01.419Z,3.90
2023-11-07T04:01:24.277Z,3.90
2023-11-07T04:01:47.092Z,3.90
2023-11-07T04:02:09.842Z,3.90
2023-11-07T04:02:32.774Z,4.00
2023-11-07T04:02:55.759Z,4.00
2023-11-07T04:03:18.771Z,4.00
2023-11-07T04:03:41.759Z,4.00
2023-11-07T04:04:05.276Z,4.10
2023-11-07T04:04:28.215Z,4.00
2023-11-07T04:04:51.141Z,4.00
2023-11-07T04:05:14.233Z,4.00
2023-11-07T04:05:37.126Z,4.00
2023-11-07T04:06:00.200Z,4.00
2023-11-07T04:06:23.392Z,4.00
2023-11-07T04:06:46.236Z,4.00
2023-11-07T04:07:09.048Z,4.00
2023-11-07T04:07:31.817Z,4.00
2023-11-07T04:07:57.021Z,4.00
2023-11-07T04:08:19.893Z,4.00
2023-11-07T04:08:43.127Z,4.00
2023-11-07T04:09:06.108Z,4.00
2023-11-07T04:09:28.979Z,4.00
2023-11-07T04:09:53.196Z,4.00
2023-11-07T04:10:16.153Z,3.90
2023-11-07T04:10:38.955Z,3.90
2023-11-07T04:11:01.768Z,3.90
2023-11-07T04:11:24.598Z,3.90
2023-11-07T04:11:47.430Z,3.90
2023-11-07T04:12:10.260Z,3.90
2023-11-07T04:12:33.916Z,3.90
2023-11-07T04:12:56.912Z,3.90
2023-11-07T04:13:20.547Z,3.80
2023-11-07T04:13:43.918Z,3.80
2023-11-07T04:14:06.955Z,3.80
2023-11-07T04:14:29.769Z,3.80
2023-11-07T04:14:54.006Z,3.80
2023-11-07T04:15:16.971Z,3.80
2023-11-07T04:15:39.749Z,3.80
2023-11-07T04:16:04.087Z,3.80
2023-11-07T04:16:27.746Z,3.80
2023-11-07T04:16:50.532Z,3.80
2023-11-07T04:17:13.356Z,3.80
2023-11-07T04:17:36.616Z,3.70
2023-11-07T04:17:59.852Z,3.70
2023-11-07T04:18:22.932Z,3.70
2023-11-07T04:18:46.025Z,3.70
2023-11-07T04:19:09.556Z,3.70
2023-11-07T04:19:32.542Z,3.80
2023-11-07T04:19:55.758Z,3.80
2023-11-07T04:20:21.065Z,3.80
2023-11-07T04:20:46.374Z,3.70
2023-11-07T04:21:09.393Z,3.80
2023-11-07T04:21:32.332Z,3.70
2023-11-07T04:21:55.129Z,3.70
2023-11-07T04:22:17.964Z,3.70
2023-11-07T04:22:40.821Z,3.70
2023-11-07T04:23:04.250Z,3.70
2023-11-07T04:23:27.211Z,3.70
2023-11-07T04:23:50.510Z,3.70
2023-11-07T04:24:14.083Z,3.60
2023-11-07T04:24:38.964Z,3.60
2023-11-07T04:25:03.249Z,3.60
2023-11-07T04:25:26.089Z,3.70
2023-11-07T04:25:51.619Z,3.70
2023-11-07T04:26:14.477Z,3.70
2023-11-07T04:26:37.315Z,3.70
2023-11-07T04:27:00.142Z,3.60
2023-11-07T04:27:23.765Z,3.70
2023-11-07T04:27:47.776Z,3.70
2023-11-07T04:28:10.831Z,3.70
2023-11-07T04:28:34.081Z,3.70
2023-11-07T04:28:57.081Z,3.70
2023-11-07T04:29:20.595Z,3.60
2023-11-07T04:29:43.460Z,3.60
2023-11-07T04:30:10.972Z,3.60
2023-11-07T04:30:33.944Z,3.60
2023-11-07T04:30:57.027Z,3.60
2023-11-07T04:31:20.036Z,3.60
2023-11-07T04:31:42.943Z,3.60
2023-11-07T04:32:06.634Z,3.70
2023-11-07T04:32:30.013Z,3.50
2023-11-07T04:32:52.850Z,3.70
2023-11-07T04:33:15.856Z,3.70
2023-11-07T04:33:40.265Z,3.70
2023-11-07T04:34:03.174Z,3.80
2023-11-07T04:34:26.167Z,3.70
2023-11-07T04:34:49.059Z,3.70
2023-11-07T04:35:13.572Z,3.80
2023-11-07T04:35:36.686Z,3.80
2023-11-07T04:35:59.514Z,3.80
2023-11-07T04:36:24.030Z,3.80
2023-11-07T04:36:46.872Z,3.80
2023-11-07T04:37:09.748Z,3.80
2023-11-07T04:37:32.783Z,3.70
2023-11-07T04:37:56.720Z,3.80
2023-11-07T04:38:20.412Z,3.80
2023-11-07T04:38:44.956Z,3.80
2023-11-07T04:39:10.768Z,3.80
2023-11-07T04:39:33.748Z,3.70
2023-11-07T04:39:56.691Z,3.70
2023-11-07T04:40:21.021Z,3.80
2023-11-07T04:40:43.954Z,3.70
2023-11-07T04:41:07.296Z,3.70
2023-11-07T04:41:30.166Z,3.70
2023-11-07T04:41:53.563Z,3.80
2023-11-07T04:42:16.396Z,3.80
2023-11-07T04:42:39.283Z,3.80
2023-11-07T04:43:02.693Z,3.80
2023-11-07T04:43:27.311Z,3.90
2023-11-07T04:43:51.302Z,3.90
2023-11-07T04:44:14.140Z,3.90
2023-11-07T04:44:37.077Z,3.90
2023-11-07T04:45:00.409Z,3.80
2023-11-07T04:45:23.374Z,3.80
2023-11-07T04:45:46.249Z,3.80
2023-11-07T04:46:09.185Z,3.80
2023-11-07T04:46:33.198Z,3.80
2023-11-07T04:46:55.982Z,3.80
2023-11-07T04:47:19.283Z,3.80
2023-11-07T04:47:42.210Z,3.80
2023-11-07T04:48:08.576Z,3.80
2023-11-07T04:48:33.758Z,3.80
2023-11-07T04:48:57.040Z,3.80
2023-11-07T04:49:22.301Z,3.80
2023-11-07T04:49:46.263Z,3.80
2023-11-07T04:50:11.930Z,3.70
2023-11-07T04:50:37.521Z,3.80
2023-11-07T04:51:01.425Z,3.70
2023-11-07T04:51:24.252Z,3.70
2023-11-07T04:51:47.825Z,3.70
2023-11-07T04:52:10.711Z,3.70
2023-11-07T04:52:36.423Z,3.70
2023-11-07T04:52:59.203Z,3.70
2023-11-07T04:53:22.090Z,3.70
2023-11-07T04:53:46.349Z,3.70
2023-11-07T04:54:09.326Z,3.70
2023-11-07T04:54:32.240Z,3.70
2023-11-07T04:54:55.170Z,3.70
2023-11-07T04:55:19.289Z,3.70
2023-11-07T04:55:45.264Z,3.70
2023-11-07T04:56:10.843Z,3.70
2023-11-07T04:56:34.017Z,3.70
2023-11-07T04:56:57.194Z,3.70
2023-11-07T04:57:20.073Z,3.70
2023-11-07T04:57:42.896Z,3.70
2023-11-07T04:58:05.694Z,3.70
2023-11-07T04:58:28.507Z,3.70
2023-11-07T04:58:57.320Z,3.70
2023-11-07T04:59:22.783Z,3.70
2023-11-07T04:59:45.598Z,3.60
2023-11-07T05:00:12.186Z,3.70
2023-11-07T05:00:35.137Z,3.60
2023-11-07T05:00:57.924Z,3.70
2023-11-07T05:01:21.608Z,3.70
2023-11-07T05:01:46.755Z,3.70
2023-11-07T05:02:10.149Z,3.70
2023-11-07T05:02:33.109Z,3.70
2023-11-07T05:02:56.675Z,3.70
2023-11-07T05:03:24.773Z,3.70
2023-11-07T05:03:50.598Z,3.70
2023-11-07T05:04:13.862Z,3.70
2023-11-07T05:04:37.086Z,3.70
2023-11-07T05:05:00.155Z,3.70
2023-11-07T05:05:23.156Z,3.70
2023-11-07T05:05:46.260Z,3.70
2023-11-07T05:06:09.932Z,3.70
2023-11-07T05:06:33.066Z,3.70
2023-11-07T05:06:56.164Z,3.70
2023-11-07T05:07:19.086Z,3.70
2023-11-07T05:07:42.411Z,3.70
2023-11-07T05:08:06.348Z,3.80
2023-11-07T05:08:29.108Z,3.70
2023-11-07T05:08:52.825Z,3.70
2023-11-07T05:09:16.017Z,3.70
2023-11-07T05:09:38.886Z,3.80
2023-11-07T05:10:01.824Z,3.80
2023-11-07T05:10:24.716Z,3.80
2023-11-07T05:10:49.046Z,3.80
2023-11-07T05:11:13.913Z,3.80
2023-11-07T05:11:37.242Z,3.80
2023-11-07T05:12:00.761Z,3.80
2023-11-07T05:12:24.615Z,3.80
2023-11-07T05:12:47.978Z,3.70